DW8453 Bekkjarvik NO current weather conditions

sailwx.info

Wind from 337 at 2 knots gusting 6

Air temperature 8.9° C
Dewpoint 6.8° C

Last reported at 2014-Oct-22 10:53 UTC.
Time now 2014-Oct-23 05:11 UTC

Location: N 60°01' E 005°12'.
View on Google Maps.

See reports from other nearby stations

  
Tides and Currents Weather Stations Pressure Air Temp Water Temp Dewpoint Dewpoint Depression Visibility Wind Speed Wind Dir Waves Ship Positions
date/time (UTC)wind fromknots sea level pressurealtimeterstation pressurevisibilityair tempwater tempwave heightnotes
2014-Oct-22 10:53 337 2 gusting 6 8.9
2014-Oct-22 10:43 328 1 gusting 6 8.3
2014-Oct-22 10:33 346 2 gusting 6 8.3
2014-Oct-22 10:23 336 2 gusting 6 8.3
2014-Oct-22 10:13 341 1 gusting 6 8.3
2014-Oct-22 10:03 349 1 gusting 6 8.3
2014-Oct-22 09:53 018 3 gusting 5 8.3
2014-Oct-22 09:43 349 3 gusting 5 7.8
2014-Oct-22 09:33 348 4 gusting 6 7.8
2014-Oct-22 09:23 345 2 gusting 5 7.8
2014-Oct-22 09:13 339 1 gusting 5 7.8
2014-Oct-22 09:03 341 2 gusting 4 7.8
2014-Oct-22 08:53 004 2 gusting 6 7.8
2014-Oct-22 08:43 326 1 gusting 5 7.8
2014-Oct-22 08:33 017 2 gusting 4 7.8
2014-Oct-22 08:23 008 3 gusting 4 7.2
2014-Oct-22 08:13 004 2 gusting 4 7.8
2014-Oct-22 08:03 004 3 gusting 6 7.8
2014-Oct-22 07:53 001 4 gusting 6 7.8
2014-Oct-22 07:43 346 5 gusting 7 7.8
2014-Oct-22 07:33 330 4 gusting 6 7.8
2014-Oct-22 07:23 358 5 gusting 7 7.8
2014-Oct-22 07:13 007 4 gusting 5 7.8
2014-Oct-22 07:03 15.0
2014-Oct-22 06:53 15.0
2014-Oct-22 06:43 355 6 gusting 7 7.8
2014-Oct-22 06:33 022 4 gusting 8 7.8
2014-Oct-22 06:23 351 6 gusting 8 7.8
2014-Oct-22 06:13 335 4 gusting 11 7.8
2014-Oct-22 06:03 028 6 gusting 11 7.8
2014-Oct-22 05:53 010 6 gusting 12 7.8
2014-Oct-22 05:43 319 8 gusting 11 7.8
2014-Oct-22 05:33 357 8 gusting 13 7.8
2014-Oct-22 05:23 158 13 gusting 13 12.8
2014-Oct-22 03:03 315 4 gusting 6 8.3
2014-Oct-22 02:53 315 1 gusting 7 8.3
2014-Oct-22 02:43 338 4 gusting 5 8.3
2014-Oct-22 02:33 321 5 gusting 7 8.3
2014-Oct-22 02:23 338 2 gusting 6 8.3
2014-Oct-22 02:13 8.9
2014-Oct-22 02:03 253 2 gusting 6 8.3
2014-Oct-22 01:53 343 2 gusting 10 8.9
2014-Oct-22 01:43 012 3 gusting 10 8.9
2014-Oct-22 01:33 278 4 gusting 5 8.9
2014-Oct-22 01:23 245 4 gusting 6 9.4
2014-Oct-22 01:13 003 1 gusting 8 9.4
2014-Oct-22 01:03 305 5 gusting 6 9.4
2014-Oct-22 00:53 254 2 gusting 5 10.0
2014-Oct-22 00:43 310 2 gusting 6 10.0
2014-Oct-22 00:33 175 2 gusting 6 10.6
2014-Oct-22 00:23 238 1 gusting 4 11.1
2014-Oct-22 00:13 248 1 gusting 1 11.1
2014-Oct-22 00:03 225 1 gusting 1 11.1
2014-Oct-21 23:53 231 1 gusting 2 11.1
2014-Oct-21 23:43 248 2 gusting 4 11.1
2014-Oct-21 23:33 207 2 gusting 4 11.1
2014-Oct-21 23:23 265 1 gusting 1 11.1
2014-Oct-21 23:13 248 0 gusting 1 11.1
2014-Oct-21 23:03 202 1 gusting 1 11.1
2014-Oct-21 22:53 185 0 gusting 1 11.1
2014-Oct-21 22:43 242 1 gusting 1 11.7
2014-Oct-21 22:33 202 2 gusting 2 11.7
2014-Oct-21 22:23 124 2 gusting 5 11.7
2014-Oct-21 22:13 112 5 gusting 6 11.7
2014-Oct-21 22:03 099 2 gusting 4 11.7
2014-Oct-21 21:53 118 5 gusting 6 11.7
2014-Oct-21 21:43 118 5 gusting 6 11.7
2014-Oct-21 21:33 117 6 gusting 6 11.7
2014-Oct-21 21:23 097 5 gusting 6 11.7
2014-Oct-21 21:13 116 6 gusting 8 11.7
2014-Oct-21 21:03 083 6 gusting 6 11.7
2014-Oct-21 20:53 112 4 gusting 6 11.7
2014-Oct-21 20:33 112 5 gusting 6 11.7
2014-Oct-21 20:23 097 5 gusting 6 12.2
2014-Oct-21 20:13 037 3 gusting 6 12.2
2014-Oct-21 20:03 158 6 gusting 6 12.2
2014-Oct-21 19:53 168 2 gusting 6 12.2
2014-Oct-21 19:43 108 2 gusting 6 12.2
2014-Oct-21 19:33 120 4 gusting 6 12.2
2014-Oct-21 19:23 135 4 gusting 5 12.2
2014-Oct-21 19:13 175 4 gusting 6 12.8
2014-Oct-21 19:03 128 5 gusting 7 12.8
2014-Oct-21 18:53 112 6 gusting 8 12.8
2014-Oct-21 18:43 125 4 gusting 6 12.8
2014-Oct-21 18:33 107 5 gusting 6 12.8
2014-Oct-21 18:23 098 3 gusting 5 12.8
2014-Oct-21 18:13 140 4 gusting 5 12.2
2014-Oct-21 18:03 112 5 gusting 6 12.2
2014-Oct-21 17:53 135 4 gusting 6 12.8
2014-Oct-21 17:43 135 6 gusting 6 12.8
2014-Oct-21 17:33 171 6 gusting 10 12.8
2014-Oct-21 17:23 158 6 gusting 10 12.8
2014-Oct-21 17:13 135 6 gusting 8 12.8
2014-Oct-21 17:03 135 6 gusting 10 12.8
2014-Oct-21 16:53 184 8 gusting 12 12.2
2014-Oct-21 16:33 158 7 gusting 11 12.2
2014-Oct-21 16:23 152 6 gusting 13 12.8
2014-Oct-21 16:13 205 7 gusting 10 12.8
2014-Oct-21 16:03 135 7 gusting 10 12.8
2014-Oct-21 15:53 151 7 gusting 13 12.8
2014-Oct-21 15:43 158 7 gusting 8 12.8
2014-Oct-21 15:33 141 10 gusting 10 12.8
2014-Oct-21 15:23 182 8 gusting 15 12.8
2014-Oct-21 15:13 169 8 gusting 15 12.8
2014-Oct-21 15:03 12.8
2014-Oct-21 14:53 129 10 gusting 13 12.8
2014-Oct-21 14:33 123 11 gusting 13 12.8
2014-Oct-21 14:23 107 7 gusting 10 12.8
2014-Oct-21 14:13 176 7 gusting 12 12.8
2014-Oct-21 14:03 12.8
2014-Oct-21 13:53 120 6 gusting 12 12.8
2014-Oct-21 13:23 112 8 gusting 13 12.8
2014-Oct-21 13:13 158 10 gusting 12 12.8
2014-Oct-21 13:03 152 8 gusting 13 12.8
2014-Oct-21 12:53 158 12 gusting 13 12.8
2014-Oct-21 12:43 158 13 gusting 13 12.8
2014-Oct-21 12:33 158 13 gusting 13 12.8
2014-Oct-21 12:23 158 13 gusting 13 12.8
2014-Oct-21 12:13 158 13 gusting 13 12.8
2014-Oct-21 12:03 132 10 gusting 17 12.8
2014-Oct-21 11:53 158 14 gusting 14 12.8
2014-Oct-21 11:43 158 14 gusting 14 12.8
2014-Oct-21 11:33 158 13 gusting 14 12.8
2014-Oct-21 11:23 187 8 gusting 13 12.8
2014-Oct-21 11:13 161 8 gusting 13 12.8
2014-Oct-21 10:43 158 11 gusting 14 12.2
2014-Oct-21 10:33 147 8 gusting 13 12.2
2014-Oct-21 10:23 174 13 gusting 18 12.8
2014-Oct-21 10:13 126 13 gusting 18 12.8
2014-Oct-21 10:03 139 12 gusting 17 12.8
2014-Oct-21 09:53 148 9 gusting 13 12.8
2014-Oct-21 09:43 143 13 gusting 14 12.8
2014-Oct-21 09:33 154 10 gusting 14 13.3
2014-Oct-21 09:23 144 2 gusting 4 13.3